sensor_id;sensor_type;location;lat;lon;timestamp;pressure;altitude;pressure_sealevel;temperature;humidity
34696;BME280;20918;51.138;17.370;2023-05-10T00:05:18;100309.48;;;7.43;59.19
34696;BME280;20918;51.138;17.370;2023-05-10T00:08:50;100309.47;;;7.51;59.20
34696;BME280;20918;51.138;17.370;2023-05-10T00:12:01;100300.27;;;7.59;59.10
34696;BME280;20918;51.138;17.370;2023-05-10T00:15:18;100295.61;;;7.61;59.19
34696;BME280;20918;51.138;17.370;2023-05-10T00:18:22;100296.31;;;7.63;59.01
34696;BME280;20918;51.138;17.370;2023-05-10T00:21:24;100296.20;;;7.67;59.03
34696;BME280;20918;51.138;17.370;2023-05-10T00:24:24;100296.80;;;7.75;59.10
34696;BME280;20918;51.138;17.370;2023-05-10T00:27:58;100296.73;;;7.82;59.08
34696;BME280;20918;51.138;17.370;2023-05-10T00:32:02;100293.08;;;7.83;58.99
34696;BME280;20918;51.138;17.370;2023-05-10T00:35:03;100294.52;;;7.83;58.98
34696;BME280;20918;51.138;17.370;2023-05-10T00:38:27;100289.91;;;7.87;59.09
34696;BME280;20918;51.138;17.370;2023-05-10T00:41:42;100287.91;;;7.89;58.97
34696;BME280;20918;51.138;17.370;2023-05-10T00:44:43;100290.00;;;7.88;58.82
34696;BME280;20918;51.138;17.370;2023-05-10T00:51:41;100284.98;;;7.89;58.91
34696;BME280;20918;51.138;17.370;2023-05-10T00:55:07;100282.96;;;7.90;58.93
34696;BME280;20918;51.138;17.370;2023-05-10T00:59:13;100284.50;;;7.90;58.86
34696;BME280;20918;51.138;17.370;2023-05-10T01:02:34;100281.95;;;7.85;58.95
34696;BME280;20918;51.138;17.370;2023-05-10T01:16:29;100276.00;;;7.70;59.13
34696;BME280;20918;51.138;17.370;2023-05-10T01:34:09;100274.20;;;7.59;59.56
34696;BME280;20918;51.138;17.370;2023-05-10T01:37:42;100269.27;;;7.55;59.72
34696;BME280;20918;51.138;17.370;2023-05-10T01:44:38;100275.30;;;7.49;59.97
34696;BME280;20918;51.138;17.370;2023-05-10T01:47:43;100275.27;;;7.46;59.86
34696;BME280;20918;51.138;17.370;2023-05-10T01:54:34;100273.08;;;7.41;60.31
34696;BME280;20918;51.138;17.370;2023-05-10T02:01:33;100273.19;;;7.40;60.12
34696;BME280;20918;51.138;17.370;2023-05-10T02:04:39;100269.45;;;7.37;60.16
34696;BME280;20918;51.138;17.370;2023-05-10T02:07:42;100273.77;;;7.33;60.25
34696;BME280;20918;51.138;17.370;2023-05-10T02:10:45;100261.09;;;7.34;60.20
34696;BME280;20918;51.138;17.370;2023-05-10T02:13:57;100263.52;;;7.30;60.64
34696;BME280;20918;51.138;17.370;2023-05-10T02:17:04;100262.48;;;7.26;60.62
34696;BME280;20918;51.138;17.370;2023-05-10T02:20:06;100263.30;;;7.25;60.86
34696;BME280;20918;51.138;17.370;2023-05-10T02:23:19;100262.05;;;7.25;60.66
34696;BME280;20918;51.138;17.370;2023-05-10T02:26:26;100260.89;;;7.25;60.68
34696;BME280;20918;51.138;17.370;2023-05-10T02:29:32;100260.44;;;7.24;60.65
34696;BME280;20918;51.138;17.370;2023-05-10T02:33:07;100257.92;;;7.24;60.63
34696;BME280;20918;51.138;17.370;2023-05-10T02:36:21;100260.45;;;7.24;60.67
34696;BME280;20918;51.138;17.370;2023-05-10T02:39:31;100258.28;;;7.24;60.83
34696;BME280;20918;51.138;17.370;2023-05-10T02:42:38;100263.11;;;7.23;60.98
34696;BME280;20918;51.138;17.370;2023-05-10T02:49:41;100260.13;;;7.15;60.92
34696;BME280;20918;51.138;17.370;2023-05-10T02:52:47;100259.52;;;7.10;61.02
34696;BME280;20918;51.138;17.370;2023-05-10T02:55:52;100258.79;;;7.09;61.20
34696;BME280;20918;51.138;17.370;2023-05-10T02:58:57;100263.11;;;7.06;61.09
34696;BME280;20918;51.138;17.370;2023-05-10T03:01:59;100269.66;;;7.02;61.12
34696;BME280;20918;51.138;17.370;2023-05-10T03:05:00;100268.23;;;7.00;61.07
34696;BME280;20918;51.138;17.370;2023-05-10T03:11:39;100268.41;;;6.96;61.17
34696;BME280;20918;51.138;17.370;2023-05-10T03:15:22;100270.75;;;6.90;61.30
34696;BME280;20918;51.138;17.370;2023-05-10T03:18:44;100267.34;;;6.81;61.36
34696;BME280;20918;51.138;17.370;2023-05-10T03:25:32;100266.64;;;6.67;61.60
34696;BME280;20918;51.138;17.370;2023-05-10T03:28:44;100266.68;;;6.62;61.68
34696;BME280;20918;51.138;17.370;2023-05-10T03:32:15;100266.23;;;6.60;61.96
34696;BME280;20918;51.138;17.370;2023-05-10T03:36:03;100264.27;;;6.58;61.99
34696;BME280;20918;51.138;17.370;2023-05-10T03:39:24;100262.79;;;6.59;62.15
34696;BME280;20918;51.138;17.370;2023-05-10T03:42:40;100259.52;;;6.70;62.37
34696;BME280;20918;51.138;17.370;2023-05-10T03:45:41;100255.25;;;6.88;62.09
34696;BME280;20918;51.138;17.370;2023-05-10T03:48:42;100250.15;;;7.09;61.97
34696;BME280;20918;51.138;17.370;2023-05-10T03:51:43;100250.95;;;7.31;61.85
34696;BME280;20918;51.138;17.370;2023-05-10T03:54:58;100250.00;;;7.52;61.74
34696;BME280;20918;51.138;17.370;2023-05-10T03:58:06;100248.66;;;7.84;61.35
34696;BME280;20918;51.138;17.370;2023-05-10T04:01:31;100246.11;;;8.15;61.15
34696;BME280;20918;51.138;17.370;2023-05-10T04:04:35;100245.63;;;8.43;60.74
34696;BME280;20918;51.138;17.370;2023-05-10T04:07:39;100242.13;;;8.66;60.38
34696;BME280;20918;51.138;17.370;2023-05-10T04:10:40;100241.23;;;8.89;60.17
34696;BME280;20918;51.138;17.370;2023-05-10T04:13:47;100244.36;;;9.16;59.60
34696;BME280;20918;51.138;17.370;2023-05-10T04:16:51;100245.64;;;9.42;59.39
34696;BME280;20918;51.138;17.370;2023-05-10T04:20:08;100242.11;;;9.70;58.57
34696;BME280;20918;51.138;17.370;2023-05-10T04:23:12;100243.57;;;10.00;58.37
34696;BME280;20918;51.138;17.370;2023-05-10T04:26:26;100241.50;;;10.28;57.99
34696;BME280;20918;51.138;17.370;2023-05-10T04:30:40;100239.21;;;10.56;56.72
34696;BME280;20918;51.138;17.370;2023-05-10T04:41:43;100235.86;;;11.49;55.72
34696;BME280;20918;51.138;17.370;2023-05-10T04:45:45;100233.02;;;11.73;54.96
34696;BME280;20918;51.138;17.370;2023-05-10T04:49:11;100231.70;;;11.95;54.25
34696;BME280;20918;51.138;17.370;2023-05-10T04:56:42;100233.93;;;12.47;52.90
34696;BME280;20918;51.138;17.370;2023-05-10T04:59:43;100229.77;;;12.65;52.24
34696;BME280;20918;51.138;17.370;2023-05-10T05:02:44;100230.73;;;12.88;51.64
34696;BME280;20918;51.138;17.370;2023-05-10T05:05:53;100230.61;;;13.03;51.14
34696;BME280;20918;51.138;17.370;2023-05-10T05:08:54;100229.09;;;13.21;50.98
34696;BME280;20918;51.138;17.370;2023-05-10T05:11:55;100228.69;;;13.26;50.25
34696;BME280;20918;51.138;17.370;2023-05-10T05:15:00;100228.42;;;13.46;50.34
34696;BME280;20918;51.138;17.370;2023-05-10T05:18:10;100231.58;;;13.74;49.52
34696;BME280;20918;51.138;17.370;2023-05-10T05:21:27;100232.05;;;13.98;48.73
34696;BME280;20918;51.138;17.370;2023-05-10T05:28:31;100230.90;;;14.47;48.46
34696;BME280;20918;51.138;17.370;2023-05-10T05:35:21;100229.11;;;15.03;47.01
34696;BME280;20918;51.138;17.370;2023-05-10T05:38:22;100226.85;;;15.19;47.69
34696;BME280;20918;51.138;17.370;2023-05-10T05:41:32;100223.50;;;15.22;46.35
34696;BME280;20918;51.138;17.370;2023-05-10T05:44:57;100226.95;;;15.12;45.63
34696;BME280;20918;51.138;17.370;2023-05-10T05:48:03;100225.40;;;15.02;45.78
34696;BME280;20918;51.138;17.370;2023-05-10T05:51:15;100224.84;;;14.93;45.49
34696;BME280;20918;51.138;17.370;2023-05-10T05:54:16;100226.83;;;14.91;44.92
34696;BME280;20918;51.138;17.370;2023-05-10T05:57:34;100226.30;;;15.00;44.94
34696;BME280;20918;51.138;17.370;2023-05-10T06:00:56;100227.04;;;15.13;44.83
34696;BME280;20918;51.138;17.370;2023-05-10T06:04:02;100227.48;;;15.15;44.62
34696;BME280;20918;51.138;17.370;2023-05-10T06:07:03;100232.35;;;15.34;44.74
34696;BME280;20918;51.138;17.370;2023-05-10T06:10:33;100234.09;;;15.43;44.26
34696;BME280;20918;51.138;17.370;2023-05-10T06:17:43;100235.62;;;15.57;43.99
34696;BME280;20918;51.138;17.370;2023-05-10T06:21:10;100237.02;;;15.56;44.20
34696;BME280;20918;51.138;17.370;2023-05-10T06:24:20;100232.23;;;15.79;43.91
34696;BME280;20918;51.138;17.370;2023-05-10T06:27:22;100236.20;;;16.00;43.77
34696;BME280;20918;51.138;17.370;2023-05-10T06:30:26;100234.19;;;16.10;43.26
34696;BME280;20918;51.138;17.370;2023-05-10T06:33:28;100235.23;;;16.12;42.83
34696;BME280;20918;51.138;17.370;2023-05-10T06:36:49;100225.52;;;16.22;43.01
34696;BME280;20918;51.138;17.370;2023-05-10T06:39:59;100222.13;;;16.12;41.63
34696;BME280;20918;51.138;17.370;2023-05-10T06:43:32;100220.29;;;16.16;42.91
34696;BME280;20918;51.138;17.370;2023-05-10T06:46:46;100217.73;;;16.67;43.03
34696;BME280;20918;51.138;17.370;2023-05-10T06:49:47;100216.04;;;16.79;41.28
34696;BME280;20918;51.138;17.370;2023-05-10T06:52:48;100214.86;;;16.69;41.83
34696;BME280;20918;51.138;17.370;2023-05-10T06:56:13;100212.39;;;16.89;42.05
34696;BME280;20918;51.138;17.370;2023-05-10T07:03:21;100209.70;;;17.43;42.09
34696;BME280;20918;51.138;17.370;2023-05-10T07:06:56;100207.58;;;17.51;41.96
34696;BME280;20918;51.138;17.370;2023-05-10T07:10:53;100207.36;;;17.45;40.82
34696;BME280;20918;51.138;17.370;2023-05-10T07:21:12;100202.92;;;17.25;40.73
34696;BME280;20918;51.138;17.370;2023-05-10T07:24:16;100200.39;;;17.41;40.87
34696;BME280;20918;51.138;17.370;2023-05-10T07:27:22;100192.18;;;17.54;40.05
34696;BME280;20918;51.138;17.370;2023-05-10T07:30:23;100195.72;;;17.60;40.65
34696;BME280;20918;51.138;17.370;2023-05-10T07:41:27;100180.23;;;18.12;40.05
34696;BME280;20918;51.138;17.370;2023-05-10T07:45:27;100183.89;;;18.21;40.46
34696;BME280;20918;51.138;17.370;2023-05-10T07:52:29;100175.34;;;18.47;40.25
34696;BME280;20918;51.138;17.370;2023-05-10T08:00:01;100169.77;;;18.72;40.45
34696;BME280;20918;51.138;17.370;2023-05-10T08:03:16;100179.67;;;18.67;40.26
34696;BME280;20918;51.138;17.370;2023-05-10T08:06:20;100172.92;;;18.56;40.13
34696;BME280;20918;51.138;17.370;2023-05-10T08:10:09;100170.61;;;18.55;40.25
34696;BME280;20918;51.138;17.370;2023-05-10T08:13:48;100168.66;;;18.67;40.48
34696;BME280;20918;51.138;17.370;2023-05-10T08:22:11;100162.98;;;18.85;39.84
34696;BME280;20918;51.138;17.370;2023-05-10T08:29:49;100157.89;;;18.90;39.67
34696;BME280;20918;51.138;17.370;2023-05-10T08:32:50;100160.05;;;18.89;40.45
34696;BME280;20918;51.138;17.370;2023-05-10T08:43:50;100159.34;;;19.19;39.95
34696;BME280;20918;51.138;17.370;2023-05-10T08:47:28;100156.11;;;19.28;40.50
34696;BME280;20918;51.138;17.370;2023-05-10T08:55:20;100157.15;;;19.82;39.27
34696;BME280;20918;51.138;17.370;2023-05-10T08:59:11;100147.55;;;19.91;39.31
34696;BME280;20918;51.138;17.370;2023-05-10T09:19:28;100142.16;;;19.59;38.39
34696;BME280;20918;51.138;17.370;2023-05-10T09:35:37;100148.51;;;19.86;38.13
34696;BME280;20918;51.138;17.370;2023-05-10T09:39:09;100154.83;;;20.03;38.07
34696;BME280;20918;51.138;17.370;2023-05-10T09:50:58;100159.93;;;19.10;38.33
34696;BME280;20918;51.138;17.370;2023-05-10T09:54:13;100158.55;;;19.24;39.17
34696;BME280;20918;51.138;17.370;2023-05-10T09:58:03;100152.91;;;19.57;39.28
34696;BME280;20918;51.138;17.370;2023-05-10T10:08:16;100139.72;;;19.40;37.27
34696;BME280;20918;51.138;17.370;2023-05-10T10:11:23;100143.03;;;19.21;37.70
34696;BME280;20918;51.138;17.370;2023-05-10T10:14:47;100140.19;;;19.11;38.13
34696;BME280;20918;51.138;17.370;2023-05-10T10:18:00;100137.23;;;19.21;38.51
34696;BME280;20918;51.138;17.370;2023-05-10T10:21:26;100128.45;;;19.59;37.88
34696;BME280;20918;51.138;17.370;2023-05-10T10:24:41;100128.13;;;19.67;37.38
34696;BME280;20918;51.138;17.370;2023-05-10T10:32:19;100126.94;;;19.50;37.70
34696;BME280;20918;51.138;17.370;2023-05-10T10:35:37;100122.66;;;19.47;37.16
34696;BME280;20918;51.138;17.370;2023-05-10T10:42:44;100128.95;;;19.88;36.42
34696;BME280;20918;51.138;17.370;2023-05-10T10:46:18;100119.45;;;19.85;36.54
34696;BME280;20918;51.138;17.370;2023-05-10T10:49:38;100120.25;;;20.03;36.36
34696;BME280;20918;51.138;17.370;2023-05-10T10:52:45;100121.89;;;20.06;35.93
34696;BME280;20918;51.138;17.370;2023-05-10T10:56:14;100116.63;;;20.09;35.58
34696;BME280;20918;51.138;17.370;2023-05-10T11:03:23;100107.77;;;19.91;36.37
34696;BME280;20918;51.138;17.370;2023-05-10T11:07:20;100106.85;;;20.29;36.84
34696;BME280;20918;51.138;17.370;2023-05-10T11:11:06;100117.14;;;20.59;36.67
34696;BME280;20918;51.138;17.370;2023-05-10T11:17:56;100112.12;;;19.85;36.90
34696;BME280;20918;51.138;17.370;2023-05-10T11:25:04;100115.23;;;19.87;37.04
34696;BME280;20918;51.138;17.370;2023-05-10T11:28:12;100110.04;;;19.61;37.55
34696;BME280;20918;51.138;17.370;2023-05-10T11:31:57;100102.94;;;19.67;38.22
34696;BME280;20918;51.138;17.370;2023-05-10T11:35:34;100110.74;;;19.70;38.35
34696;BME280;20918;51.138;17.370;2023-05-10T11:55:21;100099.08;;;20.26;38.64
34696;BME280;20918;51.138;17.370;2023-05-10T11:58:40;100094.79;;;20.13;37.63
34696;BME280;20918;51.138;17.370;2023-05-10T12:05:14;100094.55;;;20.45;36.47
34696;BME280;20918;51.138;17.370;2023-05-10T12:09:22;100099.73;;;20.30;36.82
34696;BME280;20918;51.138;17.370;2023-05-10T12:12:52;100105.98;;;20.26;37.39
34696;BME280;20918;51.138;17.370;2023-05-10T12:16:22;100096.73;;;20.40;37.05
34696;BME280;20918;51.138;17.370;2023-05-10T12:32:46;100101.46;;;19.66;37.73
34696;BME280;20918;51.138;17.370;2023-05-10T12:36:12;100095.01;;;19.75;37.93
34696;BME280;20918;51.138;17.370;2023-05-10T12:39:56;100099.95;;;20.02;37.92
34696;BME280;20918;51.138;17.370;2023-05-10T12:43:46;100093.70;;;20.27;36.31
34696;BME280;20918;51.138;17.370;2023-05-10T12:47:14;100087.71;;;20.20;36.26
34696;BME280;20918;51.138;17.370;2023-05-10T12:50:34;100089.92;;;19.99;36.88
34696;BME280;20918;51.138;17.370;2023-05-10T12:53:38;100094.52;;;19.91;37.11
34696;BME280;20918;51.138;17.370;2023-05-10T12:56:52;100097.77;;;19.59;37.31
34696;BME280;20918;51.138;17.370;2023-05-10T13:00:03;100101.51;;;19.34;37.38
34696;BME280;20918;51.138;17.370;2023-05-10T13:07:10;100089.49;;;19.81;37.69
34696;BME280;20918;51.138;17.370;2023-05-10T13:10:30;100083.60;;;20.10;36.17
34696;BME280;20918;51.138;17.370;2023-05-10T13:14:20;100080.27;;;20.22;35.67
34696;BME280;20918;51.138;17.370;2023-05-10T13:25:29;100080.17;;;20.09;35.41
34696;BME280;20918;51.138;17.370;2023-05-10T13:29:21;100073.58;;;20.10;35.40
34696;BME280;20918;51.138;17.370;2023-05-10T13:33:13;100074.59;;;20.27;35.43
34696;BME280;20918;51.138;17.370;2023-05-10T13:36:35;100074.84;;;20.05;33.81
34696;BME280;20918;51.138;17.370;2023-05-10T13:40:08;100069.83;;;19.58;34.04
34696;BME280;20918;51.138;17.370;2023-05-10T13:52:01;100060.20;;;19.69;34.86
34696;BME280;20918;51.138;17.370;2023-05-10T13:55:55;100057.40;;;19.79;34.91
34696;BME280;20918;51.138;17.370;2023-05-10T13:59:28;100055.52;;;19.69;33.84
34696;BME280;20918;51.138;17.370;2023-05-10T14:02:52;100056.93;;;19.50;34.51
34696;BME280;20918;51.138;17.370;2023-05-10T14:10:28;100048.42;;;19.58;35.99
34696;BME280;20918;51.138;17.370;2023-05-10T14:13:29;100046.85;;;19.58;36.35
34696;BME280;20918;51.138;17.370;2023-05-10T14:20:19;100045.86;;;19.61;36.46
34696;BME280;20918;51.138;17.370;2023-05-10T14:23:43;100042.37;;;19.40;36.06
34696;BME280;20918;51.138;17.370;2023-05-10T14:26:56;100038.79;;;19.27;36.41
34696;BME280;20918;51.138;17.370;2023-05-10T14:30:13;100040.73;;;19.33;36.60
34696;BME280;20918;51.138;17.370;2023-05-10T14:33:23;100038.59;;;19.32;36.81
34696;BME280;20918;51.138;17.370;2023-05-10T14:36:28;100034.86;;;19.33;36.05
34696;BME280;20918;51.138;17.370;2023-05-10T14:39:51;100032.97;;;19.40;36.73
34696;BME280;20918;51.138;17.370;2023-05-10T14:43:23;100030.46;;;19.57;36.95
34696;BME280;20918;51.138;17.370;2023-05-10T14:50:41;100035.84;;;19.43;36.57
34696;BME280;20918;51.138;17.370;2023-05-10T14:57:26;100037.04;;;19.40;37.69
34696;BME280;20918;51.138;17.370;2023-05-10T15:00:32;100039.59;;;19.37;37.38
34696;BME280;20918;51.138;17.370;2023-05-10T15:03:39;100034.61;;;19.35;37.49
34696;BME280;20918;51.138;17.370;2023-05-10T15:10:43;100041.66;;;19.41;37.10
34696;BME280;20918;51.138;17.370;2023-05-10T15:18:12;100044.23;;;19.09;37.36
34696;BME280;20918;51.138;17.370;2023-05-10T15:21:25;100046.29;;;18.95;37.62
34696;BME280;20918;51.138;17.370;2023-05-10T15:25:00;100040.80;;;18.86;37.60
34696;BME280;20918;51.138;17.370;2023-05-10T15:28:06;100042.84;;;18.89;38.14
34696;BME280;20918;51.138;17.370;2023-05-10T15:31:10;100037.59;;;19.00;38.17
34696;BME280;20918;51.138;17.370;2023-05-10T15:34:54;100037.27;;;19.13;37.75
34696;BME280;20918;51.138;17.370;2023-05-10T15:37:56;100037.75;;;19.29;37.48
34696;BME280;20918;51.138;17.370;2023-05-10T15:41:17;100037.36;;;19.34;37.55
34696;BME280;20918;51.138;17.370;2023-05-10T15:44:47;100035.50;;;19.33;37.82
34696;BME280;20918;51.138;17.370;2023-05-10T15:48:06;100034.56;;;19.36;37.15
34696;BME280;20918;51.138;17.370;2023-05-10T15:51:50;100038.60;;;19.29;37.33
34696;BME280;20918;51.138;17.370;2023-05-10T15:58:32;100040.72;;;18.97;37.13
34696;BME280;20918;51.138;17.370;2023-05-10T16:09:22;100049.94;;;18.76;37.90
34696;BME280;20918;51.138;17.370;2023-05-10T16:12:37;100051.45;;;18.74;38.18
34696;BME280;20918;51.138;17.370;2023-05-10T16:15:48;100054.96;;;18.74;38.16
34696;BME280;20918;51.138;17.370;2023-05-10T16:22:33;100054.13;;;18.80;38.04
34696;BME280;20918;51.138;17.370;2023-05-10T16:25:45;100049.92;;;18.79;38.31
34696;BME280;20918;51.138;17.370;2023-05-10T16:28:50;100050.93;;;18.77;38.06
34696;BME280;20918;51.138;17.370;2023-05-10T16:32:00;100054.73;;;18.77;38.04
34696;BME280;20918;51.138;17.370;2023-05-10T16:42:12;100050.84;;;18.87;38.20
34696;BME280;20918;51.138;17.370;2023-05-10T16:48:57;100057.54;;;18.76;38.06
34696;BME280;20918;51.138;17.370;2023-05-10T16:52:12;100060.37;;;18.65;38.03
34696;BME280;20918;51.138;17.370;2023-05-10T16:55:30;100060.84;;;18.53;38.22
34696;BME280;20918;51.138;17.370;2023-05-10T16:58:38;100062.61;;;18.45;38.35
34696;BME280;20918;51.138;17.370;2023-05-10T17:09:20;100073.11;;;18.12;38.73
34696;BME280;20918;51.138;17.370;2023-05-10T17:12:33;100076.52;;;18.02;38.90
34696;BME280;20918;51.138;17.370;2023-05-10T17:15:57;100075.25;;;17.93;39.01
34696;BME280;20918;51.138;17.370;2023-05-10T17:19:08;100081.63;;;17.84;39.16
34696;BME280;20918;51.138;17.370;2023-05-10T17:26:52;100085.14;;;17.62;39.64
34696;BME280;20918;51.138;17.370;2023-05-10T17:37:28;100091.54;;;17.50;40.09
34696;BME280;20918;51.138;17.370;2023-05-10T17:44:13;100093.04;;;17.49;40.41
34696;BME280;20918;51.138;17.370;2023-05-10T17:47:30;100095.31;;;17.46;40.47
34696;BME280;20918;51.138;17.370;2023-05-10T17:50:51;100096.95;;;17.45;40.68
34696;BME280;20918;51.138;17.370;2023-05-10T17:54:06;100094.79;;;17.43;40.70
34696;BME280;20918;51.138;17.370;2023-05-10T17:57:30;100098.94;;;17.37;40.88
34696;BME280;20918;51.138;17.370;2023-05-10T18:01:00;100102.34;;;17.31;40.85
34696;BME280;20918;51.138;17.370;2023-05-10T18:04:52;100109.33;;;17.24;40.96
34696;BME280;20918;51.138;17.370;2023-05-10T18:08:02;100107.83;;;17.15;41.14
34696;BME280;20918;51.138;17.370;2023-05-10T18:11:06;100110.15;;;17.09;41.20
34696;BME280;20918;51.138;17.370;2023-05-10T18:14:34;100111.15;;;17.00;41.31
34696;BME280;20918;51.138;17.370;2023-05-10T18:17:36;100109.27;;;16.88;41.52
34696;BME280;20918;51.138;17.370;2023-05-10T18:24:43;100115.48;;;16.68;41.67
34696;BME280;20918;51.138;17.370;2023-05-10T18:27:49;100118.41;;;16.60;41.81
34696;BME280;20918;51.138;17.370;2023-05-10T18:30:53;100123.06;;;16.45;42.16
34696;BME280;20918;51.138;17.370;2023-05-10T18:34:12;100131.79;;;16.15;42.87
34696;BME280;20918;51.138;17.370;2023-05-10T18:37:13;100138.82;;;15.84;43.41
34696;BME280;20918;51.138;17.370;2023-05-10T18:40:16;100140.14;;;15.59;43.78
34696;BME280;20918;51.138;17.370;2023-05-10T18:43:17;100146.63;;;15.41;44.25
34696;BME280;20918;51.138;17.370;2023-05-10T18:46:19;100149.90;;;15.25;44.65
34696;BME280;20918;51.138;17.370;2023-05-10T18:49:24;100156.61;;;15.12;45.22
34696;BME280;20918;51.138;17.370;2023-05-10T18:52:26;100163.21;;;14.98;45.79
34696;BME280;20918;51.138;17.370;2023-05-10T18:55:40;100164.00;;;14.89;46.02
34696;BME280;20918;51.138;17.370;2023-05-10T18:58:44;100169.67;;;14.78;46.25
34696;BME280;20918;51.138;17.370;2023-05-10T19:01:48;100172.22;;;14.68;46.54
34696;BME280;20918;51.138;17.370;2023-05-10T19:05:02;100174.98;;;14.59;46.72
34696;BME280;20918;51.138;17.370;2023-05-10T19:08:03;100175.91;;;14.49;47.04
34696;BME280;20918;51.138;17.370;2023-05-10T19:11:07;100174.80;;;14.36;47.30
34696;BME280;20918;51.138;17.370;2023-05-10T19:14:08;100179.58;;;14.25;47.49
34696;BME280;20918;51.138;17.370;2023-05-10T19:17:10;100185.95;;;14.15;47.83
34696;BME280;20918;51.138;17.370;2023-05-10T19:20:13;100188.85;;;14.06;48.09
34696;BME280;20918;51.138;17.370;2023-05-10T19:23:17;100190.91;;;13.99;48.21
34696;BME280;20918;51.138;17.370;2023-05-10T19:26:18;100187.89;;;13.94;48.45
34696;BME280;20918;51.138;17.370;2023-05-10T19:29:19;100187.38;;;13.89;48.75
34696;BME280;20918;51.138;17.370;2023-05-10T19:32:28;100190.19;;;13.81;48.87
34696;BME280;20918;51.138;17.370;2023-05-10T19:35:31;100195.71;;;13.77;48.95
34696;BME280;20918;51.138;17.370;2023-05-10T19:38:35;100194.53;;;13.74;49.23
34696;BME280;20918;51.138;17.370;2023-05-10T19:41:37;100199.33;;;13.71;49.32
34696;BME280;20918;51.138;17.370;2023-05-10T19:44:38;100198.80;;;13.68;49.40
34696;BME280;20918;51.138;17.370;2023-05-10T19:47:39;100198.98;;;13.63;49.56
34696;BME280;20918;51.138;17.370;2023-05-10T19:50:41;100203.41;;;13.59;49.89
34696;BME280;20918;51.138;17.370;2023-05-10T19:53:42;100204.84;;;13.53;49.97
34696;BME280;20918;51.138;17.370;2023-05-10T19:56:46;100201.14;;;13.47;50.25
34696;BME280;20918;51.138;17.370;2023-05-10T19:59:47;100205.60;;;13.41;50.35
34696;BME280;20918;51.138;17.370;2023-05-10T20:02:48;100211.45;;;13.33;50.38
34696;BME280;20918;51.138;17.370;2023-05-10T20:06:03;100211.10;;;13.27;50.67
34696;BME280;20918;51.138;17.370;2023-05-10T20:09:10;100212.55;;;13.22;50.84
34696;BME280;20918;51.138;17.370;2023-05-10T20:12:31;100210.54;;;13.17;51.06
34696;BME280;20918;51.138;17.370;2023-05-10T20:15:34;100214.23;;;13.11;51.28
34696;BME280;20918;51.138;17.370;2023-05-10T20:18:43;100214.59;;;13.08;51.32
34696;BME280;20918;51.138;17.370;2023-05-10T20:21:46;100219.59;;;13.06;51.60
34696;BME280;20918;51.138;17.370;2023-05-10T20:24:50;100215.25;;;13.04;51.70
34696;BME280;20918;51.138;17.370;2023-05-10T20:27:54;100217.02;;;13.01;51.70
34696;BME280;20918;51.138;17.370;2023-05-10T20:31:11;100217.77;;;12.97;51.84
34696;BME280;20918;51.138;17.370;2023-05-10T20:34:15;100217.92;;;12.95;51.97
34696;BME280;20918;51.138;17.370;2023-05-10T20:37:16;100216.11;;;12.91;52.03
34696;BME280;20918;51.138;17.370;2023-05-10T20:40:17;100219.01;;;12.85;52.09
34696;BME280;20918;51.138;17.370;2023-05-10T20:43:18;100220.12;;;12.80;52.23
34696;BME280;20918;51.138;17.370;2023-05-10T20:46:23;100224.70;;;12.75;52.47
34696;BME280;20918;51.138;17.370;2023-05-10T20:49:29;100226.23;;;12.71;52.54
34696;BME280;20918;51.138;17.370;2023-05-10T20:52:42;100223.44;;;12.67;52.81
34696;BME280;20918;51.138;17.370;2023-05-10T20:56:01;100219.56;;;12.63;52.81
34696;BME280;20918;51.138;17.370;2023-05-10T20:59:02;100222.16;;;12.57;52.91
34696;BME280;20918;51.138;17.370;2023-05-10T21:02:03;100223.38;;;12.54;52.91
34696;BME280;20918;51.138;17.370;2023-05-10T21:05:09;100223.31;;;12.51;53.05
34696;BME280;20918;51.138;17.370;2023-05-10T21:08:10;100225.70;;;12.49;52.96
34696;BME280;20918;51.138;17.370;2023-05-10T21:11:14;100229.09;;;12.49;52.83
34696;BME280;20918;51.138;17.370;2023-05-10T21:14:15;100230.77;;;12.48;52.95
34696;BME280;20918;51.138;17.370;2023-05-10T21:17:16;100227.86;;;12.44;52.98
34696;BME280;20918;51.138;17.370;2023-05-10T21:20:24;100235.90;;;12.41;53.06
34696;BME280;20918;51.138;17.370;2023-05-10T21:23:25;100238.73;;;12.39;53.01
34696;BME280;20918;51.138;17.370;2023-05-10T21:26:26;100237.64;;;12.38;53.06
34696;BME280;20918;51.138;17.370;2023-05-10T21:29:29;100240.79;;;12.35;53.15
34696;BME280;20918;51.138;17.370;2023-05-10T21:32:33;100241.86;;;12.32;53.24
34696;BME280;20918;51.138;17.370;2023-05-10T21:35:46;100239.52;;;12.31;53.16
34696;BME280;20918;51.138;17.370;2023-05-10T21:39:11;100243.44;;;12.32;52.81
34696;BME280;20918;51.138;17.370;2023-05-10T21:42:15;100244.09;;;12.36;52.87
34696;BME280;20918;51.138;17.370;2023-05-10T21:45:18;100245.13;;;12.33;53.02
34696;BME280;20918;51.138;17.370;2023-05-10T21:51:34;100246.47;;;12.23;53.21
34696;BME280;20918;51.138;17.370;2023-05-10T21:54:40;100247.98;;;12.20;53.46
34696;BME280;20918;51.138;17.370;2023-05-10T21:57:41;100247.26;;;12.19;53.27
34696;BME280;20918;51.138;17.370;2023-05-10T22:00:45;100245.10;;;12.19;53.29
34696;BME280;20918;51.138;17.370;2023-05-10T22:03:45;100245.48;;;12.19;53.29
34696;BME280;20918;51.138;17.370;2023-05-10T22:06:46;100244.35;;;12.21;53.19
34696;BME280;20918;51.138;17.370;2023-05-10T22:09:48;100249.39;;;12.22;53.25
34696;BME280;20918;51.138;17.370;2023-05-10T22:12:49;100249.48;;;12.20;53.34